| time (UTC) | temp C | wind direction | speed KPH | gust KPH | rain 1hr cm | rain 24hr cm | rain mn cm | humidity % | barometer mb |
| 20260509031001 | 5 | 110 | 12.9 | 0.0 | 0.00 | 0.00 | 0.00 | 90 | 1022.0 |
| 20260509021002 | 5 | 110 | 12.9 | 0.0 | 0.00 | 0.00 | 0.00 | 90 | 1022.0 |
| 20260509011001 | 6 | 100 | 14.5 | 0.0 | 0.00 | 0.00 | 0.00 | 90 | 1022.0 |
| 20260508211002 | 10 | 110 | 16.1 | 0.0 | 0.00 | 0.00 | 0.00 | 65 | 1022.0 |
| 20260508201001 | 11 | 100 | 22.5 | 0.0 | 0.00 | 0.00 | 0.00 | 45 | 1022.0 |
| 20260508191001 | 11 | 100 | 22.5 | 0.0 | 0.00 | 0.00 | 0.00 | 45 | 1022.0 |
| 20260508181002 | 12 | 100 | 24.1 | 0.0 | 0.00 | 0.00 | 0.00 | 35 | 1021.0 |
| 20260508171001 | 15 | 100 | 25.7 | 0.0 | 0.00 | 0.00 | 0.00 | 25 | 1021.0 |
| 20260508161001 | 13 | 0 | 0.0 | 0.0 | 0.00 | 0.00 | 0.00 | 60 | 1021.0 |
| 20260508151002 | 13 | 340 | 17.7 | 0.0 | 0.00 | 0.00 | 0.00 | 50 | 1021.0 |
| 20260508141001 | 13 | 320 | 14.5 | 0.0 | 0.00 | 0.00 | 0.00 | 60 | 1021.0 |
| 20260508131002 | 12 | 320 | 14.5 | 0.0 | 0.00 | 0.00 | 0.00 | 60 | 1021.0 |
| 20260508121002 | 15 | 240 | 9.7 | 0.0 | 0.00 | 0.00 | 0.00 | 50 | 1021.0 |
| 20260508111002 | 15 | 190 | 9.7 | 0.0 | 0.00 | 0.00 | 0.00 | 45 | 1022.0 |
| 20260508101002 | 13 | 180 | 14.5 | 0.0 | 0.00 | 0.00 | 0.00 | 50 | 1022.0 |
| 20260508091002 | 13 | 170 | 16.1 | 0.0 | 0.00 | 0.00 | 0.00 | 45 | 1022.0 |
| 20260508081001 | 13 | 130 | 16.1 | 0.0 | 0.00 | 0.00 | 0.00 | 50 | 1021.0 |
| 20260508071001 | 12 | 140 | 16.1 | 0.0 | 0.00 | 0.00 | 0.00 | 60 | 1021.0 |
| 20260508061002 | 10 | 130 | 16.1 | 0.0 | 0.00 | 0.00 | 0.00 | 65 | 1020.0 |
| 20260508041002 | 6 | 110 | 12.9 | 0.0 | 0.00 | 0.00 | 0.00 | 85 | 1020.0 |